QFA88 RKSI-YSSY
Flight info
| Callsign | QFA88 |
|---|---|
| Flight time | N/A |
| Altitude | 41000 |
| Route | OSPOT2H OSPOT Y782 TGU Y781 BESNA Y209 IKE A582 HKC Y14 TGE G339 PAKDO DCT 14N140E 08N142E 04N143E DCT FACED A216 CS Y177 AKROM Y153 ROKUU H652 BOREE |
| Aircraft | A332/H-SDE3GHIJ2J3J5M1RVWXY/LB2D1 |
Departure
| Time | 2026-05-05 15:21 |
|---|---|
| Airport | Incheon International Airport (RKSI) |
Arrival
| Time | N/A |
|---|---|
| Airport | Sydney Kingsford Smith International Airport (YSSY) |
| Time | Latitude | Longitude | Altitude | Speed | Heading |
|---|---|---|---|---|---|
| 2026-05-05 15:13 | 37.47368 | 126.42088 | 27 ft | 0 kts | 49° |
| 2026-05-05 15:16 | 37.47358 | 126.42073 | 27 ft | 3 kts | 49° |
| 2026-05-05 15:17 | 37.47345 | 126.42055 | 27 ft | 3 kts | 49° |
| 2026-05-05 15:17 | 37.47333 | 126.42037 | 27 ft | 3 kts | 49° |
| 2026-05-05 15:17 | 37.47320 | 126.42020 | 27 ft | 3 kts | 53° |
| 2026-05-05 15:17 | 37.47311 | 126.41998 | 27 ft | 3 kts | 37° |
| 2026-05-05 15:18 | 37.47293 | 126.41988 | 27 ft | 3 kts | 345° |
| 2026-05-05 15:18 | 37.47284 | 126.41991 | 27 ft | 0 kts | 321° |
| 2026-05-05 15:19 | 37.47284 | 126.41990 | 27 ft | 0 kts | 321° |
| 2026-05-05 15:20 | 37.47310 | 126.41877 | 27 ft | 22 kts | 261° |
| 2026-05-05 15:20 | 37.47237 | 126.41701 | 28 ft | 22 kts | 227° |
| 2026-05-05 15:20 | 37.47115 | 126.41705 | 29 ft | 18 kts | 146° |
| 2026-05-05 15:20 | 37.46959 | 126.41844 | 28 ft | 56 kts | 145° |
| 2026-05-05 15:21 | 37.46429 | 126.42316 | 30 ft | 128 kts | 144° |
| 2026-05-05 15:21 | 37.45551 | 126.43079 | 296 ft | 170 kts | 147° |
| 2026-05-05 15:21 | 37.44462 | 126.43913 | 897 ft | 202 kts | 150° |
| 2026-05-05 15:21 | 37.43177 | 126.44872 | 1682 ft | 229 kts | 153° |
| 2026-05-05 15:22 | 37.41742 | 126.45958 | 2655 ft | 249 kts | 153° |
| 2026-05-05 15:22 | 37.40251 | 126.47114 | 3834 ft | 259 kts | 152° |
| 2026-05-05 15:22 | 37.38767 | 126.48462 | 5048 ft | 269 kts | 141° |
| 2026-05-05 15:22 | 37.37449 | 126.50173 | 6220 ft | 276 kts | 137° |
| 2026-05-05 15:23 | 37.36046 | 126.51866 | 7283 ft | 283 kts | 139° |
| 2026-05-05 15:23 | 37.34592 | 126.53562 | 8398 ft | 287 kts | 140° |
| 2026-05-05 15:23 | 37.33110 | 126.55255 | 9545 ft | 289 kts | 140° |
| 2026-05-05 15:23 | 37.31597 | 126.56961 | 10515 ft | 297 kts | 140° |
| 2026-05-05 15:24 | 37.29986 | 126.58761 | 10907 ft | 325 kts | 140° |
| 2026-05-05 15:24 | 37.28213 | 126.60734 | 11128 ft | 356 kts | 139° |
| 2026-05-05 15:24 | 37.26288 | 126.62877 | 11388 ft | 382 kts | 139° |
| 2026-05-05 15:24 | 37.24280 | 126.65119 | 12184 ft | 388 kts | 139° |
| 2026-05-05 15:25 | 37.22294 | 126.67339 | 13237 ft | 388 kts | 138° |
| 2026-05-05 15:25 | 37.20273 | 126.69598 | 14167 ft | 390 kts | 138° |
| 2026-05-05 15:25 | 37.18232 | 126.71879 | 14894 ft | 396 kts | 138° |
| 2026-05-05 15:25 | 37.16164 | 126.74188 | 15609 ft | 401 kts | 138° |
| 2026-05-05 15:26 | 37.14065 | 126.76527 | 16305 ft | 406 kts | 138° |
| 2026-05-05 15:26 | 37.11941 | 126.78892 | 17002 ft | 411 kts | 138° |
| 2026-05-05 15:26 | 37.09797 | 126.81276 | 17696 ft | 415 kts | 138° |
| 2026-05-05 15:26 | 37.07628 | 126.83687 | 18363 ft | 419 kts | 138° |
| 2026-05-05 15:27 | 37.05467 | 126.86087 | 18916 ft | 423 kts | 138° |
| 2026-05-05 15:27 | 37.03254 | 126.88543 | 19469 ft | 427 kts | 138° |
| 2026-05-05 15:27 | 37.01025 | 126.91013 | 19986 ft | 430 kts | 138° |
| 2026-05-05 15:27 | 36.98774 | 126.93507 | 20522 ft | 434 kts | 138° |
| 2026-05-05 15:28 | 36.96505 | 126.96019 | 21039 ft | 437 kts | 138° |
| 2026-05-05 15:28 | 36.94217 | 126.98550 | 21556 ft | 441 kts | 138° |
| 2026-05-05 15:28 | 36.91911 | 127.01097 | 22057 ft | 444 kts | 138° |
| 2026-05-05 15:28 | 36.89589 | 127.03661 | 22569 ft | 447 kts | 138° |
| 2026-05-05 15:29 | 36.87283 | 127.06206 | 23052 ft | 450 kts | 138° |
| 2026-05-05 15:29 | 36.84923 | 127.08807 | 23511 ft | 454 kts | 138° |
| 2026-05-05 15:29 | 36.82547 | 127.11424 | 23913 ft | 457 kts | 138° |
| 2026-05-05 15:29 | 36.80153 | 127.14059 | 24294 ft | 460 kts | 138° |
| 2026-05-05 15:30 | 36.77745 | 127.16706 | 24682 ft | 463 kts | 138° |
| 2026-05-05 15:30 | 36.75323 | 127.19367 | 25079 ft | 466 kts | 138° |
| 2026-05-05 15:30 | 36.72884 | 127.22043 | 25450 ft | 469 kts | 138° |
| 2026-05-05 15:30 | 36.70465 | 127.24696 | 25817 ft | 471 kts | 138° |
| 2026-05-05 15:31 | 36.67997 | 127.27401 | 26184 ft | 473 kts | 138° |
| 2026-05-05 15:31 | 36.65515 | 127.30117 | 26538 ft | 476 kts | 138° |
| 2026-05-05 15:31 | 36.63022 | 127.32843 | 26879 ft | 479 kts | 138° |
| 2026-05-05 15:31 | 36.60513 | 127.35585 | 27212 ft | 481 kts | 139° |
| 2026-05-05 15:32 | 36.57987 | 127.38342 | 27533 ft | 484 kts | 139° |
| 2026-05-05 15:32 | 36.55452 | 127.41107 | 27831 ft | 486 kts | 139° |
| 2026-05-05 15:32 | 36.52902 | 127.43886 | 28139 ft | 489 kts | 139° |
| 2026-05-05 15:32 | 36.50372 | 127.46640 | 28444 ft | 491 kts | 139° |
| 2026-05-05 15:33 | 36.47795 | 127.49443 | 28746 ft | 493 kts | 139° |
| 2026-05-05 15:33 | 36.45209 | 127.52253 | 29055 ft | 495 kts | 139° |
| 2026-05-05 15:33 | 36.42607 | 127.55078 | 29340 ft | 498 kts | 139° |
| 2026-05-05 15:33 | 36.39995 | 127.57911 | 29622 ft | 500 kts | 139° |
| 2026-05-05 15:34 | 36.37370 | 127.60756 | 29887 ft | 502 kts | 139° |
| 2026-05-05 15:34 | 36.34732 | 127.63611 | 30173 ft | 504 kts | 139° |
| 2026-05-05 15:34 | 36.32095 | 127.66464 | 30553 ft | 502 kts | 140° |
| 2026-05-05 15:34 | 36.29502 | 127.69265 | 30925 ft | 500 kts | 140° |
| 2026-05-05 15:35 | 36.26883 | 127.72093 | 31261 ft | 499 kts | 140° |
| 2026-05-05 15:35 | 36.24261 | 127.74922 | 31590 ft | 499 kts | 141° |
| 2026-05-05 15:35 | 36.21643 | 127.77742 | 31874 ft | 499 kts | 141° |
| 2026-05-05 15:35 | 36.19025 | 127.80561 | 32147 ft | 499 kts | 141° |
| 2026-05-05 15:36 | 36.16403 | 127.83382 | 32429 ft | 499 kts | 142° |
| 2026-05-05 15:36 | 36.13780 | 127.86201 | 32740 ft | 499 kts | 142° |
| 2026-05-05 15:36 | 36.11163 | 127.89011 | 33050 ft | 498 kts | 142° |
| 2026-05-05 15:36 | 36.08581 | 127.91781 | 33361 ft | 498 kts | 142° |
| 2026-05-05 15:37 | 36.05964 | 127.94586 | 33633 ft | 498 kts | 142° |
| 2026-05-05 15:37 | 36.03348 | 127.97386 | 33917 ft | 497 kts | 143° |
| 2026-05-05 15:37 | 36.00733 | 128.00184 | 34232 ft | 496 kts | 143° |
| 2026-05-05 15:37 | 35.98125 | 128.02971 | 34477 ft | 496 kts | 143° |
| 2026-05-05 15:38 | 35.95513 | 128.05760 | 34659 ft | 497 kts | 143° |
| 2026-05-05 15:38 | 35.92898 | 128.08550 | 34862 ft | 497 kts | 143° |
| 2026-05-05 15:38 | 35.90282 | 128.11339 | 35069 ft | 498 kts | 143° |
| 2026-05-05 15:38 | 35.87693 | 128.14096 | 35257 ft | 498 kts | 144° |
| 2026-05-05 15:39 | 35.85078 | 128.16879 | 35470 ft | 497 kts | 144° |
| 2026-05-05 15:39 | 35.82456 | 128.19666 | 35672 ft | 498 kts | 144° |
| 2026-05-05 15:39 | 35.79833 | 128.22451 | 35887 ft | 497 kts | 144° |
| 2026-05-05 15:39 | 35.77215 | 128.25230 | 36091 ft | 498 kts | 144° |
| 2026-05-05 15:40 | 35.74586 | 128.28016 | 36283 ft | 498 kts | 144° |
| 2026-05-05 15:40 | 35.71962 | 128.30795 | 36465 ft | 499 kts | 144° |
| 2026-05-05 15:40 | 35.69331 | 128.33580 | 36645 ft | 499 kts | 144° |
| 2026-05-05 15:40 | 35.66698 | 128.36364 | 36840 ft | 500 kts | 144° |
| 2026-05-05 15:41 | 35.64096 | 128.39114 | 37013 ft | 500 kts | 145° |
| 2026-05-05 15:41 | 35.61455 | 128.41901 | 37215 ft | 500 kts | 145° |
| 2026-05-05 15:41 | 35.58819 | 128.44682 | 37406 ft | 500 kts | 145° |
| 2026-05-05 15:41 | 35.56176 | 128.47466 | 37531 ft | 501 kts | 145° |
| 2026-05-05 15:42 | 35.53520 | 128.50259 | 37531 ft | 505 kts | 145° |
| 2026-05-05 15:42 | 35.48027 | 128.55629 | 37821 ft | 500 kts | 154° |
| 2026-05-05 15:42 | 35.45038 | 128.57749 | 38057 ft | 495 kts | 158° |
| 2026-05-05 15:43 | 35.41997 | 128.59706 | 38236 ft | 493 kts | 160° |
| 2026-05-05 15:43 | 35.38970 | 128.61550 | 38385 ft | 492 kts | 161° |
| 2026-05-05 15:43 | 35.35883 | 128.63376 | 38566 ft | 492 kts | 161° |
| 2026-05-05 15:43 | 35.32796 | 128.65179 | 38759 ft | 492 kts | 161° |
| 2026-05-05 15:44 | 35.29713 | 128.66978 | 38909 ft | 491 kts | 162° |
| 2026-05-05 15:44 | 35.26631 | 128.68781 | 39050 ft | 490 kts | 162° |
| 2026-05-05 15:44 | 35.23554 | 128.70589 | 39191 ft | 491 kts | 162° |
| 2026-05-05 15:44 | 35.20478 | 128.72400 | 39332 ft | 491 kts | 162° |
| 2026-05-05 15:45 | 35.17439 | 128.74192 | 39463 ft | 491 kts | 162° |
| 2026-05-05 15:45 | 35.14365 | 128.76006 | 39600 ft | 491 kts | 162° |
| 2026-05-05 15:45 | 35.11289 | 128.77820 | 39727 ft | 491 kts | 162° |
| 2026-05-05 15:45 | 35.08215 | 128.79634 | 39845 ft | 491 kts | 162° |
| 2026-05-05 15:46 | 35.05136 | 128.81451 | 39962 ft | 491 kts | 162° |
| 2026-05-05 15:46 | 34.99075 | 128.85388 | 40217 ft | 496 kts | 157° |
| 2026-05-05 15:46 | 34.96109 | 128.87549 | 40325 ft | 497 kts | 156° |
| 2026-05-05 15:47 | 34.93158 | 128.89750 | 40413 ft | 498 kts | 156° |
| 2026-05-05 15:47 | 34.91210 | 128.91217 | 40523 ft | 497 kts | 156° |
| 2026-05-05 15:47 | 34.87319 | 128.94166 | 40699 ft | 497 kts | 156° |
| 2026-05-05 15:48 | 34.81444 | 128.98612 | 40885 ft | 497 kts | 156° |
| 2026-05-05 15:48 | 34.78505 | 129.00828 | 41001 ft | 497 kts | 156° |
| 2026-05-05 15:48 | 34.75564 | 129.03040 | 41076 ft | 497 kts | 156° |
| 2026-05-05 15:49 | 34.69682 | 129.07454 | 41155 ft | 496 kts | 156° |
| 2026-05-05 15:49 | 34.63840 | 129.11829 | 41156 ft | 497 kts | 156° |
| 2026-05-05 15:50 | 34.57960 | 129.16224 | 41155 ft | 496 kts | 156° |
| 2026-05-05 15:50 | 34.52081 | 129.20613 | 41156 ft | 496 kts | 156° |
| 2026-05-05 15:51 | 34.46200 | 129.24996 | 41152 ft | 496 kts | 157° |
| 2026-05-05 15:51 | 34.40365 | 129.29340 | 41162 ft | 495 kts | 157° |
| 2026-05-05 15:52 | 34.34491 | 129.33704 | 41162 ft | 495 kts | 157° |
| 2026-05-05 15:52 | 34.28617 | 129.38060 | 41157 ft | 495 kts | 157° |
| 2026-05-05 15:53 | 34.22746 | 129.42407 | 41157 ft | 495 kts | 157° |
| 2026-05-05 15:53 | 34.16881 | 129.46743 | 41154 ft | 494 kts | 158° |
| 2026-05-05 15:54 | 34.11060 | 129.51040 | 41162 ft | 493 kts | 158° |
| 2026-05-05 15:54 | 34.05209 | 129.55352 | 41167 ft | 493 kts | 158° |
| 2026-05-05 15:55 | 33.99352 | 129.59659 | 41159 ft | 493 kts | 158° |